Time;durP1;ratioP1;P1;durP2;ratioP2;P2;SDS_P1;SDS_P2;PMS_P1;PMS_P2;Temp;Humidity;BMP_temperature;BMP_pressure;BME280_temperature;BME280_humidity;BME280_pressure;Samples;Min_cycle;Max_cycle;Signal;HPM_P1;HPM_P2
2022/11/13 00:00:27;;;;;;;7.03;2.70;;;;;;;9.22;74.80;95269.53;5065687;28;20043;-81
2022/11/13 00:02:52;;;;;;;5.97;3.10;;;;;;;9.21;74.80;95267.91;5065517;28;20021;-81
2022/11/13 00:05:18;;;;;;;4.93;3.00;;;;;;;9.19;75.20;95270.06;5065785;28;20088;-79
2022/11/13 00:07:43;;;;;;;7.55;3.70;;;;;;;9.17;75.12;95267.66;5064134;28;20033;-80
2022/11/13 00:10:09;;;;;;;4.47;2.63;;;;;;;9.17;75.09;95269.53;5065270;28;20029;-80
2022/11/13 00:12:34;;;;;;;5.85;3.22;;;;;;;9.24;74.93;95270.84;5065233;28;20024;-80
2022/11/13 00:15:00;;;;;;;7.55;3.78;;;;;;;9.28;74.95;95268.44;5065469;28;20210;-80
2022/11/13 00:17:27;;;;;;;7.90;4.10;;;;;;;9.28;74.59;95263.13;5065311;28;20329;-79
2022/11/13 00:19:52;;;;;;;6.65;3.42;;;;;;;9.24;74.83;95262.06;5065214;28;20311;-80
2022/11/13 00:22:19;;;;;;;6.25;3.72;;;;;;;9.26;74.73;95261.78;5065451;28;20071;-79
2022/11/13 00:24:45;;;;;;;5.63;3.17;;;;;;;9.31;74.37;95261.78;5065145;28;20028;-79
2022/11/13 00:27:10;;;;;;;5.35;3.70;;;;;;;9.33;74.31;95260.44;5064975;28;20024;-79
2022/11/13 00:29:36;;;;;;;6.18;3.80;;;;;;;9.30;74.16;95252.19;5065091;28;20290;-79
2022/11/13 00:32:01;;;;;;;5.47;3.40;;;;;;;9.30;74.00;95255.69;5065040;28;20024;-79
2022/11/13 00:34:27;;;;;;;5.80;3.42;;;;;;;9.33;74.20;95255.13;5064963;28;20115;-80
2022/11/13 00:36:52;;;;;;;6.10;3.72;;;;;;;9.34;74.19;95248.75;5064713;28;20027;-79
2022/11/13 00:39:18;;;;;;;7.32;3.08;;;;;;;9.37;74.16;95258.03;5065128;28;20078;-79
2022/11/13 00:41:43;;;;;;;7.18;4.13;;;;;;;9.38;74.11;95260.44;5064677;28;20016;-79
2022/11/13 00:44:09;;;;;;;9.88;4.20;;;;;;;9.38;74.06;95251.63;5064723;28;20023;-79
2022/11/13 00:46:35;;;;;;;5.43;3.47;;;;;;;9.38;73.92;95246.31;5064724;28;20075;-80
2022/11/13 00:49:00;;;;;;;6.13;4.05;;;;;;;9.37;74.07;95252.72;5064725;28;20025;-79
2022/11/13 00:51:26;;;;;;;6.72;3.63;;;;;;;9.37;74.26;95260.69;5064599;28;20079;-79
2022/11/13 00:53:51;;;;;;;9.63;4.35;;;;;;;9.36;74.37;95246.59;5064585;28;20031;-80
2022/11/13 00:56:17;;;;;;;8.43;4.30;;;;;;;9.32;74.61;95245.56;5064458;28;20226;-80
2022/11/13 00:58:42;;;;;;;7.80;4.63;;;;;;;9.36;74.52;95243.94;5064317;28;20044;-80
2022/11/13 01:01:11;;;;;;;8.13;4.82;;;;;;;9.38;74.54;95247.13;5064568;28;20016;-80
2022/11/13 01:03:37;;;;;;;9.80;5.05;;;;;;;9.41;74.50;95245.78;5064290;28;20021;-80
2022/11/13 01:06:18;;;;;;;7.13;4.70;;;;;;;9.39;74.51;95242.59;5064285;28;20219;-80
2022/11/13 01:08:43;;;;;;;7.70;4.85;;;;;;;9.32;74.89;95247.41;5064376;28;20025;-80
2022/11/13 01:11:12;;;;;;;7.32;4.70;;;;;;;9.33;74.91;95244.47;5064229;28;20064;-81
2022/11/13 01:13:40;;;;;;;11.75;5.45;;;;;;;9.31;75.22;95241.28;5064325;28;20323;-80
2022/11/13 01:16:07;;;;;;;14.55;5.20;;;;;;;9.36;75.15;95249.28;5064028;28;20021;-80
2022/11/13 01:18:33;;;;;;;11.07;5.90;;;;;;;9.37;75.10;95250.84;5064014;28;20127;-80
2022/11/13 01:21:08;;;;;;;10.48;4.68;;;;;;;9.36;74.88;95245.78;5064089;28;20016;-79
2022/11/13 01:23:34;;;;;;;8.10;5.40;;;;;;;9.33;75.14;95249.78;5063981;28;20017;-80
2022/11/13 01:26:16;;;;;;;9.73;6.05;;;;;;;9.35;75.09;95250.31;5063912;28;20024;-79
2022/11/13 01:28:43;;;;;;;10.20;6.00;;;;;;;9.38;75.03;95255.13;5063983;28;20043;-79
2022/11/13 01:31:15;;;;;;;11.38;5.05;;;;;;;9.36;74.91;95243.13;5063798;28;20045;-79
2022/11/13 01:33:41;;;;;;;7.93;5.07;;;;;;;9.39;74.77;95238.06;5063802;28;20044;-79
2022/11/13 01:36:16;;;;;;;7.20;4.97;;;;;;;9.37;74.93;95245.53;5063656;28;20219;-79
2022/11/13 01:38:41;;;;;;;10.05;5.35;;;;;;;9.36;75.09;95233.31;5063658;28;20027;-79
2022/11/13 01:41:15;;;;;;;8.07;5.22;;;;;;;9.38;75.17;95230.34;5063826;28;20056;-79
2022/11/13 01:43:41;;;;;;;9.80;5.07;;;;;;;9.39;74.95;95222.09;5063480;28;20063;-79
2022/11/13 01:46:14;;;;;;;10.02;6.20;;;;;;;9.41;74.95;95227.94;5063635;28;20363;-78
2022/11/13 01:48:44;;;;;;;9.25;5.57;;;;;;;9.44;74.89;95224.75;5062912;28;20229;-79
2022/11/13 01:51:18;;;;;;;8.98;5.18;;;;;;;9.43;74.76;95220.50;5063410;28;20029;-79
2022/11/13 01:53:46;;;;;;;11.52;5.82;;;;;;;9.42;74.87;95218.91;5063371;28;20059;-79
2022/11/13 01:56:13;;;;;;;9.70;6.35;;;;;;;9.46;74.78;95223.69;5063453;28;20028;-79
2022/11/13 01:58:41;;;;;;;12.98;7.00;;;;;;;9.47;74.64;95212.75;5063433;28;20040;-79
2022/11/13 02:01:07;;;;;;;14.18;6.88;;;;;;;9.49;74.54;95223.16;5063151;28;20064;-79
2022/11/13 02:03:33;;;;;;;11.68;6.70;;;;;;;9.45;74.79;95220.22;5063262;28;20100;-79
2022/11/13 02:05:59;;;;;;;12.73;6.75;;;;;;;9.44;74.69;95218.63;5063364;28;20021;-79
2022/11/13 02:08:24;;;;;;;10.65;6.35;;;;;;;9.47;74.76;95226.06;5063297;28;20047;-79
2022/11/13 02:10:50;;;;;;;10.32;6.22;;;;;;;9.51;74.58;95224.47;5063263;28;20020;-79
2022/11/13 02:13:15;;;;;;;10.07;6.65;;;;;;;9.50;74.30;95217.53;5063097;28;20314;-79
2022/11/13 02:15:42;;;;;;;11.85;7.15;;;;;;;9.47;74.39;95228.72;5062910;28;20017;-79
2022/11/13 02:18:10;;;;;;;8.63;5.78;;;;;;;9.46;74.51;95221.00;5063195;28;20040;-79
2022/11/13 02:20:39;;;;;;;11.55;6.50;;;;;;;9.47;74.55;95220.75;5062988;28;20246;-79
2022/11/13 02:23:16;;;;;;;11.80;5.97;;;;;;;9.46;74.53;95231.66;5062976;28;20027;-78
2022/11/13 02:25:44;;;;;;;9.30;6.10;;;;;;;9.43;74.62;95222.38;5063050;28;20100;-78
2022/11/13 02:28:09;;;;;;;12.45;6.53;;;;;;;9.44;74.26;95223.94;5062761;28;20029;-79
2022/11/13 02:30:35;;;;;;;11.90;6.25;;;;;;;9.45;74.33;95214.91;5062878;28;20029;-79
2022/11/13 02:33:01;;;;;;;10.65;6.60;;;;;;;9.44;74.26;95223.94;5062943;28;20135;-79
2022/11/13 02:35:31;;;;;;;11.35;6.97;;;;;;;9.45;74.02;95214.91;5062667;28;20025;-79
2022/11/13 02:38:01;;;;;;;11.57;6.97;;;;;;;9.42;73.93;95213.59;5062865;28;20052;-79
2022/11/13 02:40:28;;;;;;;15.55;6.82;;;;;;;9.45;73.86;95209.59;5062771;28;20017;-79
2022/11/13 02:42:53;;;;;;;19.88;8.15;;;;;;;9.36;73.79;95209.34;5062713;28;20052;-78
2022/11/13 02:45:19;;;;;;;12.68;8.25;;;;;;;9.32;74.04;95216.28;5062802;28;20060;-78
2022/11/13 02:47:45;;;;;;;12.43;7.45;;;;;;;9.33;74.05;95219.75;5062951;28;20322;-78
2022/11/13 02:50:11;;;;;;;16.83;9.45;;;;;;;9.32;73.94;95213.63;5062578;28;20354;-78
2022/11/13 02:52:36;;;;;;;14.60;8.73;;;;;;;9.32;74.22;95212.81;5062569;28;20219;-78
2022/11/13 02:55:02;;;;;;;17.83;9.60;;;;;;;9.31;74.43;95222.66;5062596;28;20083;-79
2022/11/13 02:57:28;;;;;;;13.00;7.93;;;;;;;9.32;74.26;95220.78;5062429;28;20063;-78
2022/11/13 02:59:54;;;;;;;18.13;9.52;;;;;;;9.31;74.24;95220.00;5064164;28;20218;-78
2022/11/13 03:02:19;;;;;;;16.02;9.45;;;;;;;9.35;73.99;95225.59;5066839;28;20330;-80
2022/11/13 03:04:45;;;;;;;13.68;9.23;;;;;;;9.35;73.85;95226.38;5066622;28;20021;-79
2022/11/13 03:07:12;;;;;;;15.23;8.70;;;;;;;9.31;74.09;95235.97;5066546;28;20091;-80
2022/11/13 03:09:38;;;;;;;15.10;9.10;;;;;;;9.32;74.21;95224.28;5066420;28;20025;-79
2022/11/13 03:12:04;;;;;;;15.27;9.85;;;;;;;9.33;74.43;95228.50;5066384;28;20024;-79
2022/11/13 03:14:30;;;;;;;14.20;8.93;;;;;;;9.35;74.21;95221.06;5066581;28;20028;-79
2022/11/13 03:16:55;;;;;;;17.35;9.85;;;;;;;9.39;74.02;95223.97;5066495;28;20319;-79
2022/11/13 03:19:21;;;;;;;13.25;8.70;;;;;;;9.41;73.84;95216.50;5066545;28;20025;-79
2022/11/13 03:21:46;;;;;;;15.32;9.43;;;;;;;9.38;73.66;95215.19;5066255;28;20021;-78
2022/11/13 03:24:12;;;;;;;18.38;9.85;;;;;;;9.40;73.68;95220.22;5066130;28;20035;-79
2022/11/13 03:26:37;;;;;;;14.13;8.95;;;;;;;9.35;73.74;95221.06;5066243;28;20021;-79
2022/11/13 03:29:03;;;;;;;15.85;9.50;;;;;;;9.36;73.68;95217.34;5066373;28;20017;-79
2022/11/13 03:31:28;;;;;;;16.80;9.75;;;;;;;9.36;73.39;95227.16;5066127;28;20051;-79
2022/11/13 03:33:54;;;;;;;16.05;8.98;;;;;;;9.34;73.51;95226.63;5066048;28;20042;-78
2022/11/13 03:36:19;;;;;;;14.82;9.20;;;;;;;9.34;73.92;95230.13;5066044;28;20017;-79
2022/11/13 03:38:45;;;;;;;19.02;9.35;;;;;;;9.33;73.82;95222.41;5064887;28;20017;-79
2022/11/13 03:41:13;;;;;;;14.88;9.50;;;;;;;9.29;74.01;95232.78;5066119;28;20020;-79
2022/11/13 03:43:39;;;;;;;14.48;8.80;;;;;;;9.30;73.79;95233.56;5065811;28;20024;-79
2022/11/13 03:46:05;;;;;;;13.82;8.63;;;;;;;9.30;73.98;95234.38;5066095;28;20043;-79
2022/11/13 03:48:30;;;;;;;13.95;8.85;;;;;;;9.32;73.84;95226.94;5066023;28;20021;-79
2022/11/13 03:50:56;;;;;;;13.50;8.80;;;;;;;9.30;73.59;95234.38;5065611;28;20032;-79
2022/11/13 03:53:25;;;;;;;13.00;8.23;;;;;;;9.30;73.70;95234.38;5066005;28;20045;-78
2022/11/13 03:55:51;;;;;;;12.93;8.48;;;;;;;9.24;73.90;95232.81;5065681;28;20055;-79
2022/11/13 03:58:17;;;;;;;15.18;9.73;;;;;;;9.26;74.26;95237.84;5065786;28;20053;-79
2022/11/13 04:00:43;;;;;;;14.15;8.77;;;;;;;9.29;74.36;95232.00;5065713;28;20334;-79
2022/11/13 04:03:09;;;;;;;15.88;8.80;;;;;;;9.27;74.42;95236.78;5065565;28;20025;-79
2022/11/13 04:05:35;;;;;;;14.50;8.77;;;;;;;9.26;74.60;95221.88;5065553;28;20025;-79
2022/11/13 04:08:00;;;;;;;15.82;9.70;;;;;;;9.22;74.76;95238.41;5065385;28;20231;-79
2022/11/13 04:10:26;;;;;;;18.08;9.85;;;;;;;9.21;75.02;95228.00;5064827;28;20033;-79
2022/11/13 04:12:52;;;;;;;16.70;10.18;;;;;;;9.22;75.05;95232.28;5065774;28;20032;-79
2022/11/13 04:15:17;;;;;;;16.95;9.35;;;;;;;9.20;74.95;95229.88;5065289;28;20036;-79
2022/11/13 04:17:43;;;;;;;15.40;9.20;;;;;;;9.21;74.98;95225.34;5065422;28;20048;-79
2022/11/13 04:20:09;;;;;;;19.65;10.95;;;;;;;9.18;74.96;95239.19;5065269;28;20055;-79
2022/11/13 04:22:35;;;;;;;16.13;9.43;;;;;;;9.18;74.98;95223.22;5065210;28;20033;-79
2022/11/13 04:25:00;;;;;;;17.80;10.43;;;;;;;9.19;75.25;95227.50;5065327;28;20322;-79
2022/11/13 04:27:25;;;;;;;16.50;10.00;;;;;;;9.17;75.28;95219.78;5065097;28;20026;-79
2022/11/13 04:29:51;;;;;;;17.27;9.68;;;;;;;9.16;75.25;95218.19;5065115;28;20168;-79
2022/11/13 04:32:16;;;;;;;16.77;10.25;;;;;;;9.14;75.47;95215.00;5064814;28;20036;-80
2022/11/13 04:34:42;;;;;;;18.27;10.75;;;;;;;9.17;75.15;95224.31;5065067;28;20025;-80
2022/11/13 04:37:08;;;;;;;18.90;11.00;;;;;;;9.18;75.29;95220.56;5064884;28;20021;-79
2022/11/13 04:39:33;;;;;;;17.80;10.68;;;;;;;9.20;75.02;95229.09;5064863;28;20315;-79
2022/11/13 04:44:42;;;;;;;16.05;10.13;;;;;;;9.20;75.32;95224.56;5064858;28;20104;-80
2022/11/13 04:47:08;;;;;;;24.70;10.50;;;;;;;9.22;75.41;95221.66;5064787;28;20110;-79
2022/11/13 04:49:34;;;;;;;18.80;10.75;;;;;;;9.22;75.42;95224.31;5064759;28;20047;-79
2022/11/13 04:51:59;;;;;;;18.85;10.50;;;;;;;9.23;75.41;95228.53;5064631;28;20096;-79
2022/11/13 04:54:25;;;;;;;21.08;11.52;;;;;;;9.26;75.31;95222.69;5064500;28;20338;-79
2022/11/13 04:56:50;;;;;;;18.92;11.20;;;;;;;9.27;75.34;95228.81;5064762;28;20337;-79
2022/11/13 04:59:16;;;;;;;20.85;11.93;;;;;;;9.27;75.17;95231.47;5064334;28;20403;-79
2022/11/13 05:01:41;;;;;;;21.52;12.02;;;;;;;9.25;75.66;95234.38;5064405;28;20019;-79
2022/11/13 05:04:11;;;;;;;26.42;12.75;;;;;;;9.25;75.57;95231.72;5064333;28;20314;-79
2022/11/13 05:06:36;;;;;;;20.77;11.93;;;;;;;9.28;75.40;95239.19;5064380;28;20095;-79
2022/11/13 05:09:02;;;;;;;22.20;12.10;;;;;;;9.29;75.26;95243.41;5063162;28;20210;-79
2022/11/13 05:11:27;;;;;;;24.02;12.43;;;;;;;9.31;75.06;95235.19;5064290;28;20028;-79
2022/11/13 05:13:53;;;;;;;23.52;13.27;;;;;;;9.33;74.90;95238.38;5064404;28;20059;-79
2022/11/13 05:16:18;;;;;;;23.90;13.10;;;;;;;9.31;74.95;95229.84;5064173;28;20021;-78
2022/11/13 05:18:44;;;;;;;21.52;13.65;;;;;;;9.36;74.77;95229.81;5063915;28;20123;-78
2022/11/13 05:21:09;;;;;;;23.13;12.80;;;;;;;9.35;75.00;95229.03;5063989;28;20023;-78
2022/11/13 05:23:35;;;;;;;22.35;13.00;;;;;;;9.35;74.77;95233.56;5063145;28;20027;-78
2022/11/13 05:26:12;;;;;;;20.83;12.98;;;;;;;9.39;74.47;95237.28;5064018;28;20020;-78
2022/11/13 05:28:38;;;;;;;26.05;14.63;;;;;;;9.41;74.44;95235.94;5063750;28;20033;-79
2022/11/13 05:31:15;;;;;;;24.40;13.70;;;;;;;9.40;74.65;95231.69;5063829;28;20041;-79
2022/11/13 05:33:41;;;;;;;25.92;13.82;;;;;;;9.41;74.51;95230.59;5063837;28;20091;-79
2022/11/13 05:36:09;;;;;;;27.27;14.23;;;;;;;9.37;74.66;95229.56;5063817;28;20345;-79
2022/11/13 05:38:35;;;;;;;22.02;13.00;;;;;;;9.39;74.57;95226.63;5063740;28;20099;-79
2022/11/13 05:41:22;;;;;;;25.38;13.75;;;;;;;9.40;74.58;95239.69;5063945;28;20031;-78
2022/11/13 05:43:48;;;;;;;21.42;13.57;;;;;;;9.38;74.47;95247.13;5063670;28;20037;-78
2022/11/13 05:46:23;;;;;;;26.20;15.23;;;;;;;9.39;74.55;95256.69;5063413;28;20032;-78
2022/11/13 05:48:56;;;;;;;26.48;15.60;;;;;;;9.41;74.50;95251.91;5063656;28;20100;-78
2022/11/13 05:51:26;;;;;;;28.00;15.23;;;;;;;9.44;74.48;95255.88;5063717;28;20095;-78
2022/11/13 05:53:52;;;;;;;24.75;14.77;;;;;;;9.47;73.93;95250.03;5063705;28;20258;-78
2022/11/13 05:56:18;;;;;;;22.90;13.82;;;;;;;9.48;73.62;95250.81;5063357;28;20322;-78
2022/11/13 05:58:45;;;;;;;26.85;15.82;;;;;;;9.47;73.75;95259.88;5063214;28;20538;-78
2022/11/13 06:01:14;;;;;;;27.55;14.70;;;;;;;9.48;73.63;95264.13;5063324;28;20301;-78
2022/11/13 06:03:40;;;;;;;26.35;15.13;;;;;;;9.50;73.43;95256.66;5063280;28;20216;-78
2022/11/13 06:06:07;;;;;;;29.48;16.73;;;;;;;9.56;73.21;95266.22;5063188;28;20028;-78
2022/11/13 06:08:33;;;;;;;29.38;15.60;;;;;;;9.56;72.94;95268.88;5063191;28;20030;-77
2022/11/13 06:11:00;;;;;;;26.77;16.42;;;;;;;9.55;73.15;95273.41;5062922;28;20039;-77
2022/11/13 06:13:26;;;;;;;27.48;14.30;;;;;;;9.52;73.18;95273.16;5062953;28;20021;-79
2022/11/13 06:15:52;;;;;;;27.75;14.48;;;;;;;9.44;73.54;95270.00;5063224;28;20029;-77
2022/11/13 06:18:24;;;;;;;24.25;14.43;;;;;;;9.47;73.47;95273.97;5062842;28;20027;-77
2022/11/13 06:20:49;;;;;;;26.25;15.02;;;;;;;9.44;73.65;95266.53;5061993;28;20020;-77
2022/11/13 06:23:15;;;;;;;24.98;15.20;;;;;;;9.48;73.65;95266.78;5062966;28;20219;-78
2022/11/13 06:25:41;;;;;;;25.77;15.07;;;;;;;9.49;73.34;95268.38;5062867;28;20028;-78
2022/11/13 06:28:07;;;;;;;28.52;15.05;;;;;;;9.52;73.04;95255.31;5062765;28;20245;-78
2022/11/13 06:30:32;;;;;;;31.23;13.73;;;;;;;9.55;73.17;95267.31;5062789;28;20031;-78
2022/11/13 06:32:58;;;;;;;28.90;15.77;;;;;;;9.55;73.27;95277.94;5062751;28;20025;-78
2022/11/13 06:35:23;;;;;;;25.05;14.45;;;;;;;9.56;73.19;95274.22;5062877;28;20338;-78
2022/11/13 06:37:49;;;;;;;30.27;15.70;;;;;;;9.56;72.97;95282.19;5062941;28;20070;-78
2022/11/13 06:40:14;;;;;;;27.75;15.05;;;;;;;9.61;72.79;95271.53;5062507;28;20036;-78
2022/11/13 06:42:39;;;;;;;25.30;15.18;;;;;;;9.63;72.75;95272.06;5062750;28;20021;-77
2022/11/13 06:45:05;;;;;;;24.77;14.75;;;;;;;9.72;72.82;95274.97;5062745;28;20017;-78
2022/11/13 06:47:31;;;;;;;25.17;14.23;;;;;;;9.78;72.57;95266.66;5062577;28;20354;-78
2022/11/13 06:49:56;;;;;;;23.75;12.95;;;;;;;9.83;72.25;95258.66;5062599;28;20024;-78
2022/11/13 06:52:22;;;;;;;24.85;14.40;;;;;;;9.87;72.10;95263.44;5062605;28;20218;-78
2022/11/13 06:54:47;;;;;;;31.90;14.48;;;;;;;9.85;71.93;95261.06;5062496;28;20059;-79
2022/11/13 06:57:12;;;;;;;23.90;13.82;;;;;;;9.95;71.81;95270.84;5062553;28;20052;-78
2022/11/13 06:59:38;;;;;;;23.48;13.80;;;;;;;9.94;71.69;95270.06;5062384;28;20043;-78
2022/11/13 07:02:04;;;;;;;27.90;14.75;;;;;;;9.97;71.90;95258.06;5062549;28;20024;-80
2022/11/13 07:04:29;;;;;;;23.80;14.05;;;;;;;10.02;71.30;95255.38;5062487;28;20040;-81
2022/11/13 07:06:55;;;;;;;27.85;15.70;;;;;;;10.10;70.80;95260.13;5062511;28;20338;-81
2022/11/13 07:09:20;;;;;;;23.67;13.75;;;;;;;10.18;70.71;95259.53;5062567;28;20020;-79
2022/11/13 07:11:46;;;;;;;24.77;14.00;;;;;;;10.22;70.04;95257.91;5062443;28;20315;-81
2022/11/13 07:14:11;;;;;;;25.65;14.00;;;;;;;10.25;69.91;95270.69;5062525;28;20024;-80
2022/11/13 07:16:37;;;;;;;25.15;14.63;;;;;;;10.33;70.08;95266.66;5062342;28;20311;-81
2022/11/13 07:19:03;;;;;;;26.05;14.27;;;;;;;10.44;69.85;95264.72;5062279;28;20024;-79
2022/11/13 07:21:29;;;;;;;28.27;14.38;;;;;;;10.49;69.63;95280.69;5062395;28;20310;-79
2022/11/13 07:23:54;;;;;;;26.48;14.93;;;;;;;10.52;69.47;95280.16;5062228;28;20023;-80
2022/11/13 07:26:21;;;;;;;28.52;14.93;;;;;;;10.60;69.37;95274.22;5062374;28;20027;-79
2022/11/13 07:28:47;;;;;;;29.33;17.52;;;;;;;10.64;68.93;95287.78;5062327;28;20188;-79
2022/11/13 07:31:14;;;;;;;27.08;15.43;;;;;;;10.68;69.04;95270.16;5062184;28;20040;-79
2022/11/13 07:33:39;;;;;;;27.60;15.00;;;;;;;10.76;68.20;95279.44;5062213;28;20051;-79
2022/11/13 07:36:05;;;;;;;27.23;14.02;;;;;;;10.78;68.17;95282.63;5062338;28;20017;-80
2022/11/13 07:38:31;;;;;;;29.08;16.73;;;;;;;10.76;68.64;95276.75;5062069;28;20279;-80
2022/11/13 07:40:58;;;;;;;25.95;15.23;;;;;;;10.80;68.45;95283.91;5061943;28;20024;-80
2022/11/13 07:43:23;;;;;;;27.77;15.38;;;;;;;10.90;67.55;95279.59;5062297;28;20028;-80
2022/11/13 07:45:53;;;;;;;27.67;14.48;;;;;;;10.95;67.45;95285.69;5063335;28;20017;-79
2022/11/13 07:48:22;;;;;;;24.15;14.38;;;;;;;11.04;67.36;95285.88;5065846;28;20023;-80
2022/11/13 07:50:48;;;;;;;26.88;15.85;;;;;;;11.07;67.40;95279.16;5065565;28;20033;-79
2022/11/13 07:53:14;;;;;;;37.63;15.77;;;;;;;11.12;66.99;95276.47;5065691;28;20032;-79
2022/11/13 07:55:40;;;;;;;24.98;14.15;;;;;;;11.14;66.72;95279.66;5065606;28;20334;-80
2022/11/13 07:58:05;;;;;;;24.38;13.88;;;;;;;11.14;66.68;95284.97;5065468;28;20064;-80
2022/11/13 08:00:33;;;;;;;27.45;13.88;;;;;;;11.20;66.54;95283.84;5064440;28;20067;-80
2022/11/13 08:03:07;;;;;;;27.45;14.70;;;;;;;11.24;66.15;95279.53;5065640;28;20070;-81
2022/11/13 08:05:32;;;;;;;24.77;14.95;;;;;;;11.28;65.98;95280.56;5065309;28;20315;-80
2022/11/13 08:07:58;;;;;;;23.67;14.18;;;;;;;11.35;65.38;95275.69;5065394;28;20099;-80
2022/11/13 08:10:23;;;;;;;28.80;15.18;;;;;;;11.38;65.43;95277.81;5065598;28;20088;-81
2022/11/13 08:13:00;;;;;;;22.60;12.63;;;;;;;11.43;65.23;95279.63;5065410;28;20029;-81
2022/11/13 08:15:27;;;;;;;31.55;15.07;;;;;;;11.43;64.92;95280.41;5065323;28;20021;-81
2022/11/13 08:17:58;;;;;;;25.33;15.20;;;;;;;11.41;64.91;95274.53;5065629;28;20033;-81
2022/11/13 08:20:25;;;;;;;25.45;15.50;;;;;;;11.54;65.57;95280.28;5065160;28;20047;-81
2022/11/13 08:22:51;;;;;;;24.40;14.60;;;;;;;11.60;65.36;95279.97;5065167;28;20028;-80
2022/11/13 08:25:17;;;;;;;27.38;15.15;;;;;;;11.61;65.22;95275.41;5064700;28;20025;-80
2022/11/13 08:27:44;;;;;;;27.85;15.55;;;;;;;11.69;64.89;95274.00;5065088;28;20047;-80
2022/11/13 08:30:10;;;;;;;24.77;15.25;;;;;;;11.70;63.74;95271.03;5065060;28;20021;-74
2022/11/13 08:32:35;;;;;;;22.50;14.02;;;;;;;11.73;62.79;95277.69;5064626;28;20021;-80
2022/11/13 08:35:01;;;;;;;25.23;13.32;;;;;;;11.78;63.70;95262.38;5064844;28;20362;-80
2022/11/13 08:37:38;;;;;;;26.30;14.90;;;;;;;11.86;62.99;95274.31;5065053;28;20036;-77
2022/11/13 08:40:15;;;;;;;24.08;14.20;;;;;;;11.98;62.99;95282.75;5064840;28;20025;-77
2022/11/13 08:42:41;;;;;;;26.17;15.05;;;;;;;12.07;62.21;95287.44;5064756;28;20311;-77
2022/11/13 08:45:07;;;;;;;25.98;16.38;;;;;;;12.11;61.74;95283.94;5064716;28;20020;-77
2022/11/13 08:47:33;;;;;;;26.50;15.77;;;;;;;12.17;62.18;95287.31;5064592;28;20092;-77
2022/11/13 08:49:58;;;;;;;24.65;15.35;;;;;;;12.24;62.73;95293.91;5064301;28;20262;-77
2022/11/13 08:52:24;;;;;;;25.65;15.38;;;;;;;12.32;62.18;95289.00;5064591;28;20119;-77
2022/11/13 08:54:49;;;;;;;22.45;15.52;;;;;;;12.35;61.97;95299.88;5064651;28;20017;-78
2022/11/13 08:57:14;;;;;;;25.77;15.35;;;;;;;12.36;61.75;95295.34;5064366;28;20416;-77
2022/11/13 08:59:40;;;;;;;26.67;15.93;;;;;;;12.42;61.63;95288.84;5063289;28;20023;-77
2022/11/13 09:02:11;;;;;;;27.95;15.70;;;;;;;12.50;61.24;95298.13;5064400;28;20009;-77
2022/11/13 09:04:37;;;;;;;25.60;16.83;;;;;;;12.56;60.91;95300.41;5064497;28;20016;-77
2022/11/13 09:07:02;;;;;;;26.63;16.63;;;;;;;12.67;60.75;95294.91;5064374;28;20025;-77
2022/11/13 09:09:28;;;;;;;27.70;17.05;;;;;;;12.77;60.24;95292.09;5064136;28;20021;-77
2022/11/13 09:11:53;;;;;;;34.00;16.98;;;;;;;12.88;59.98;95293.50;5064420;28;20245;-77
2022/11/13 09:14:19;;;;;;;26.27;16.25;;;;;;;12.89;58.58;95300.44;5064419;28;20020;-76
2022/11/13 09:16:45;;;;;;;24.58;14.95;;;;;;;12.94;57.71;95297.69;5064338;28;20338;-78
2022/11/13 09:19:10;;;;;;;22.33;14.35;;;;;;;13.00;57.49;95291.16;5062906;28;20025;-76
2022/11/13 09:21:36;;;;;;;22.42;14.60;;;;;;;13.05;56.91;95288.41;5064221;28;20021;-76
2022/11/13 09:24:33;;;;;;;22.38;13.30;;;;;;;13.02;56.80;95288.97;5064101;28;20374;-77
2022/11/13 09:26:59;;;;;;;22.27;13.52;;;;;;;13.00;56.50;95282.34;5058515;28;20040;-77
2022/11/13 09:29:27;;;;;;;21.27;13.77;;;;;;;12.99;56.82;95283.44;5063931;28;20025;-78
2022/11/13 09:31:53;;;;;;;26.85;15.07;;;;;;;13.00;57.13;95282.34;5063937;28;20024;-77
2022/11/13 09:34:18;;;;;;;24.33;15.82;;;;;;;13.01;57.22;95276.69;5063690;28;20142;-77
2022/11/13 09:36:44;;;;;;;22.85;13.98;;;;;;;13.07;56.94;95280.09;5063619;28;20334;-77
2022/11/13 09:39:09;;;;;;;28.08;16.27;;;;;;;13.11;57.38;95285.63;5063755;28;20049;-77
2022/11/13 09:41:38;;;;;;;29.70;16.05;;;;;;;13.18;57.85;95275.34;5063873;28;20378;-77
2022/11/13 09:44:19;;;;;;;22.92;14.35;;;;;;;13.19;57.68;95271.59;5063529;28;20035;-77
2022/11/13 09:46:56;;;;;;;22.83;13.55;;;;;;;13.07;57.89;95276.59;5063711;28;20025;-77
2022/11/13 09:49:32;;;;;;;22.55;13.93;;;;;;;13.07;57.95;95261.34;5063614;28;20093;-76
2022/11/13 09:52:02;;;;;;;24.98;15.13;;;;;;;13.10;57.65;95263.44;5063202;28;20036;-76
2022/11/13 09:55:23;;;;;;;23.88;15.40;;;;;;;13.16;57.64;95256.09;5063268;28;20029;-76
2022/11/13 09:58:00;;;;;;;24.77;15.27;;;;;;;13.17;57.08;95253.16;5024855;28;20045;-76
2022/11/13 10:00:28;;;;;;;22.80;14.25;;;;;;;13.25;56.33;95260.50;5063542;28;20028;-76
2022/11/13 10:03:27;;;;;;;22.80;14.35;;;;;;;13.24;56.09;95250.88;5063336;28;20021;-76
2022/11/13 10:06:11;;;;;;;25.67;13.30;;;;;;;13.24;56.24;95252.75;5063178;28;20048;-76
2022/11/13 10:08:54;;;;;;;22.50;13.65;;;;;;;13.19;56.35;95258.22;5062674;28;20206;-76
2022/11/13 10:11:33;;;;;;;23.30;14.65;;;;;;;13.22;56.21;95245.00;5063288;28;20055;-77
2022/11/13 10:14:06;;;;;;;23.27;15.30;;;;;;;13.18;56.37;95253.94;5063066;28;20319;-77
2022/11/13 10:16:41;;;;;;;24.17;15.63;;;;;;;13.20;56.18;95251.75;5062870;28;20025;-77
2022/11/13 10:19:22;;;;;;;23.02;14.65;;;;;;;13.21;56.12;95253.34;5063113;28;20024;-77
2022/11/13 10:21:57;;;;;;;23.27;14.18;;;;;;;13.22;56.71;95247.69;5062854;28;20245;-77
2022/11/13 10:24:43;;;;;;;27.88;15.98;;;;;;;13.27;56.97;95248.69;5062877;28;20020;-77
2022/11/13 10:27:11;;;;;;;23.58;14.88;;;;;;;13.28;56.32;95243.03;5062570;28;20033;-77
2022/11/13 10:29:36;;;;;;;22.20;15.15;;;;;;;13.27;56.14;95240.66;5062756;28;20051;-76
2022/11/13 10:32:31;;;;;;;27.00;17.40;;;;;;;13.31;56.04;95247.84;5062873;28;20033;-77
2022/11/13 10:35:18;;;;;;;21.98;15.20;;;;;;;13.28;56.07;95240.34;5062788;28;20025;-77
2022/11/13 10:38:02;;;;;;;23.77;15.35;;;;;;;13.28;55.93;95243.03;5062649;28;20021;-77
2022/11/13 10:40:31;;;;;;;27.27;16.90;;;;;;;13.24;55.99;95242.03;5062596;28;20029;-76
2022/11/13 10:43:21;;;;;;;23.77;15.40;;;;;;;13.23;56.02;95233.22;5062604;28;20071;-77
2022/11/13 10:45:58;;;;;;;21.60;15.23;;;;;;;13.24;55.86;95231.34;5062516;28;20033;-77
2022/11/13 10:48:25;;;;;;;25.00;15.07;;;;;;;13.20;56.04;95225.78;5062693;28;20025;-76
2022/11/13 10:50:59;;;;;;;24.92;14.65;;;;;;;13.24;55.92;95229.44;5062433;28;20024;-76
2022/11/13 10:53:32;;;;;;;24.80;15.55;;;;;;;13.18;56.51;95221.81;5062388;28;20029;-78
2022/11/13 10:55:58;;;;;;;;;;;;;;;13.04;56.62;95219.88;5062457;28;20028;-76
2022/11/13 10:58:24;;;;;;;21.33;14.15;;;;;;;12.98;57.11;95221.06;5061330;28;19958;-76
2022/11/13 11:00:51;;;;;;;26.58;14.75;;;;;;;12.97;56.68;95221.38;5062063;28;20188;-77
2022/11/13 11:03:18;;;;;;;25.58;14.98;;;;;;;13.02;56.65;95222.06;5061806;28;20041;-76
2022/11/13 11:06:00;;;;;;;26.38;15.75;;;;;;;13.08;56.23;95230.03;5062170;28;20031;-76
2022/11/13 11:08:31;;;;;;;28.95;16.63;;;;;;;13.10;56.30;95225.16;5062272;28;20020;-76
2022/11/13 11:14:18;;;;;;;24.02;14.77;;;;;;;13.07;55.88;95212.34;5062245;28;20064;-77
2022/11/13 11:16:45;;;;;;;25.27;15.63;;;;;;;13.09;55.99;95218.22;5062373;28;20222;-77
2022/11/13 11:19:14;;;;;;;25.70;16.92;;;;;;;13.15;56.02;95217.06;5062278;28;20021;-77
2022/11/13 11:21:41;;;;;;;32.15;17.73;;;;;;;13.16;55.90;95214.06;5065294;28;20036;-77
2022/11/13 11:24:23;;;;;;;24.25;15.50;;;;;;;13.18;55.57;95217.25;5066369;28;20024;-77
2022/11/13 11:27:02;;;;;;;25.33;17.33;;;;;;;13.18;55.90;95205.75;5065834;28;20063;-77
2022/11/13 11:29:31;;;;;;;27.70;17.20;;;;;;;13.26;55.41;95210.41;5066156;28;20032;-77
2022/11/13 11:32:18;;;;;;;28.08;17.45;;;;;;;13.28;54.99;95205.56;5065963;28;20275;-77
2022/11/13 11:34:49;;;;;;;27.40;17.15;;;;;;;13.31;54.94;95199.66;5066084;28;20668;-76
2022/11/13 11:37:18;;;;;;;23.10;14.90;;;;;;;13.35;54.79;95203.31;5065584;28;20029;-76